sensor_id;sensor_type;location;lat;lon;timestamp;P1;durP1;ratioP1;P2;durP2;ratioP2
17586;SDS011;8912;52.336;17.172;2023-01-16T00:00:01;6.13;;;1.80;;
17586;SDS011;8912;52.336;17.172;2023-01-16T00:02:31;1.83;;;1.30;;
17586;SDS011;8912;52.336;17.172;2023-01-16T00:05:01;2.87;;;1.60;;
17586;SDS011;8912;52.336;17.172;2023-01-16T00:07:31;3.23;;;2.07;;
17586;SDS011;8912;52.336;17.172;2023-01-16T00:10:00;6.53;;;1.40;;
17586;SDS011;8912;52.336;17.172;2023-01-16T00:12:30;3.60;;;1.40;;
17586;SDS011;8912;52.336;17.172;2023-01-16T00:14:59;4.13;;;1.47;;
17586;SDS011;8912;52.336;17.172;2023-01-16T00:17:28;2.97;;;1.30;;
17586;SDS011;8912;52.336;17.172;2023-01-16T00:19:57;3.30;;;1.37;;
17586;SDS011;8912;52.336;17.172;2023-01-16T00:22:28;1.57;;;1.17;;
17586;SDS011;8912;52.336;17.172;2023-01-16T00:24:57;1.77;;;1.00;;
17586;SDS011;8912;52.336;17.172;2023-01-16T00:27:26;1.83;;;1.00;;
17586;SDS011;8912;52.336;17.172;2023-01-16T00:29:55;2.13;;;1.20;;
17586;SDS011;8912;52.336;17.172;2023-01-16T00:32:24;1.50;;;1.00;;
17586;SDS011;8912;52.336;17.172;2023-01-16T00:34:53;1.70;;;1.17;;
17586;SDS011;8912;52.336;17.172;2023-01-16T00:37:22;1.60;;;1.10;;
17586;SDS011;8912;52.336;17.172;2023-01-16T00:39:53;3.03;;;1.20;;
17586;SDS011;8912;52.336;17.172;2023-01-16T00:42:22;1.80;;;1.30;;
17586;SDS011;8912;52.336;17.172;2023-01-16T00:44:51;2.03;;;1.10;;
17586;SDS011;8912;52.336;17.172;2023-01-16T00:47:19;2.20;;;1.10;;
17586;SDS011;8912;52.336;17.172;2023-01-16T00:49:48;1.60;;;1.20;;
17586;SDS011;8912;52.336;17.172;2023-01-16T00:52:17;2.17;;;1.30;;
17586;SDS011;8912;52.336;17.172;2023-01-16T00:54:46;3.63;;;1.30;;
17586;SDS011;8912;52.336;17.172;2023-01-16T00:57:17;3.03;;;1.00;;
17586;SDS011;8912;52.336;17.172;2023-01-16T00:59:46;2.00;;;1.10;;
17586;SDS011;8912;52.336;17.172;2023-01-16T01:02:15;3.50;;;1.30;;
17586;SDS011;8912;52.336;17.172;2023-01-16T01:04:44;1.70;;;1.10;;
17586;SDS011;8912;52.336;17.172;2023-01-16T01:07:13;2.40;;;1.30;;
17586;SDS011;8912;52.336;17.172;2023-01-16T01:09:42;3.63;;;1.00;;
17586;SDS011;8912;52.336;17.172;2023-01-16T01:12:11;2.27;;;1.17;;
17586;SDS011;8912;52.336;17.172;2023-01-16T01:14:42;2.50;;;1.00;;
17586;SDS011;8912;52.336;17.172;2023-01-16T01:17:11;2.30;;;1.10;;
17586;SDS011;8912;52.336;17.172;2023-01-16T01:19:40;2.00;;;0.90;;
17586;SDS011;8912;52.336;17.172;2023-01-16T01:22:09;3.03;;;1.20;;
17586;SDS011;8912;52.336;17.172;2023-01-16T01:24:37;2.10;;;1.20;;
17586;SDS011;8912;52.336;17.172;2023-01-16T01:27:07;4.53;;;1.43;;
17586;SDS011;8912;52.336;17.172;2023-01-16T01:29:36;1.40;;;0.97;;
17586;SDS011;8912;52.336;17.172;2023-01-16T01:32:06;2.10;;;1.20;;
17586;SDS011;8912;52.336;17.172;2023-01-16T01:34:35;1.77;;;1.10;;
17586;SDS011;8912;52.336;17.172;2023-01-16T01:37:05;2.80;;;1.23;;
17586;SDS011;8912;52.336;17.172;2023-01-16T01:39:35;2.03;;;0.93;;
17586;SDS011;8912;52.336;17.172;2023-01-16T01:42:04;1.67;;;1.03;;
17586;SDS011;8912;52.336;17.172;2023-01-16T01:44:51;1.13;;;0.70;;
17586;SDS011;8912;52.336;17.172;2023-01-16T01:47:25;3.20;;;1.10;;
17586;SDS011;8912;52.336;17.172;2023-01-16T01:49:57;1.53;;;1.00;;
17586;SDS011;8912;52.336;17.172;2023-01-16T01:52:29;2.73;;;1.00;;
17586;SDS011;8912;52.336;17.172;2023-01-16T01:55:02;2.33;;;0.93;;
17586;SDS011;8912;52.336;17.172;2023-01-16T01:57:34;3.93;;;1.00;;
17586;SDS011;8912;52.336;17.172;2023-01-16T02:00:07;2.63;;;0.93;;
17586;SDS011;8912;52.336;17.172;2023-01-16T02:02:41;4.03;;;2.30;;
17586;SDS011;8912;52.336;17.172;2023-01-16T02:05:14;2.57;;;1.33;;
17586;SDS011;8912;52.336;17.172;2023-01-16T02:07:47;2.23;;;1.20;;
17586;SDS011;8912;52.336;17.172;2023-01-16T02:10:20;1.67;;;1.10;;
17586;SDS011;8912;52.336;17.172;2023-01-16T02:12:55;1.83;;;1.37;;
17586;SDS011;8912;52.336;17.172;2023-01-16T02:15:25;2.23;;;1.20;;
17586;SDS011;8912;52.336;17.172;2023-01-16T02:17:56;2.07;;;1.10;;
17586;SDS011;8912;52.336;17.172;2023-01-16T02:20:46;2.97;;;1.20;;
17586;SDS011;8912;52.336;17.172;2023-01-16T02:23:31;2.07;;;1.30;;
17586;SDS011;8912;52.336;17.172;2023-01-16T02:29:27;3.23;;;1.40;;
17586;SDS011;8912;52.336;17.172;2023-01-16T02:32:23;3.37;;;1.03;;
17586;SDS011;8912;52.336;17.172;2023-01-16T02:35:04;1.97;;;0.97;;
17586;SDS011;8912;52.336;17.172;2023-01-16T02:37:43;5.00;;;1.27;;
17586;SDS011;8912;52.336;17.172;2023-01-16T02:40:21;2.70;;;1.50;;
17586;SDS011;8912;52.336;17.172;2023-01-16T02:43:02;4.30;;;1.10;;
17586;SDS011;8912;52.336;17.172;2023-01-16T02:45:42;4.00;;;1.43;;
17586;SDS011;8912;52.336;17.172;2023-01-16T02:48:20;4.40;;;1.53;;
17586;SDS011;8912;52.336;17.172;2023-01-16T02:50:57;1.77;;;1.30;;
17586;SDS011;8912;52.336;17.172;2023-01-16T02:53:33;3.50;;;1.47;;
17586;SDS011;8912;52.336;17.172;2023-01-16T02:56:10;1.70;;;1.00;;
17586;SDS011;8912;52.336;17.172;2023-01-16T02:58:45;3.90;;;1.40;;
17586;SDS011;8912;52.336;17.172;2023-01-16T03:01:17;4.80;;;1.70;;
17586;SDS011;8912;52.336;17.172;2023-01-16T03:03:49;5.57;;;1.50;;
17586;SDS011;8912;52.336;17.172;2023-01-16T03:06:36;2.80;;;1.50;;
17586;SDS011;8912;52.336;17.172;2023-01-16T03:09:17;3.30;;;1.20;;
17586;SDS011;8912;52.336;17.172;2023-01-16T03:12:00;3.73;;;1.50;;
17586;SDS011;8912;52.336;17.172;2023-01-16T03:14:51;2.53;;;1.33;;
17586;SDS011;8912;52.336;17.172;2023-01-16T03:17:31;2.67;;;1.40;;
17586;SDS011;8912;52.336;17.172;2023-01-16T03:20:23;3.00;;;1.27;;
17586;SDS011;8912;52.336;17.172;2023-01-16T03:23:00;2.97;;;1.50;;
17586;SDS011;8912;52.336;17.172;2023-01-16T03:25:38;4.03;;;1.50;;
17586;SDS011;8912;52.336;17.172;2023-01-16T03:28:14;3.13;;;1.43;;
17586;SDS011;8912;52.336;17.172;2023-01-16T03:30:53;3.50;;;1.60;;
17586;SDS011;8912;52.336;17.172;2023-01-16T03:33:33;2.40;;;1.40;;
17586;SDS011;8912;52.336;17.172;2023-01-16T03:36:12;2.87;;;1.30;;
17586;SDS011;8912;52.336;17.172;2023-01-16T03:38:44;1.67;;;1.20;;
17586;SDS011;8912;52.336;17.172;2023-01-16T03:41:16;3.10;;;1.70;;
17586;SDS011;8912;52.336;17.172;2023-01-16T03:43:49;5.30;;;1.40;;
17586;SDS011;8912;52.336;17.172;2023-01-16T03:46:23;3.93;;;1.60;;
17586;SDS011;8912;52.336;17.172;2023-01-16T03:48:58;4.10;;;1.67;;
17586;SDS011;8912;52.336;17.172;2023-01-16T03:51:33;3.43;;;1.57;;
17586;SDS011;8912;52.336;17.172;2023-01-16T03:54:09;1.90;;;1.40;;
17586;SDS011;8912;52.336;17.172;2023-01-16T03:56:45;4.33;;;1.80;;
17586;SDS011;8912;52.336;17.172;2023-01-16T03:59:19;4.10;;;1.43;;
17586;SDS011;8912;52.336;17.172;2023-01-16T04:01:49;3.60;;;1.30;;
17586;SDS011;8912;52.336;17.172;2023-01-16T04:04:23;5.80;;;1.50;;
17586;SDS011;8912;52.336;17.172;2023-01-16T04:06:58;1.47;;;1.20;;
17586;SDS011;8912;52.336;17.172;2023-01-16T04:09:33;2.73;;;1.20;;
17586;SDS011;8912;52.336;17.172;2023-01-16T04:12:06;2.33;;;1.40;;
17586;SDS011;8912;52.336;17.172;2023-01-16T04:14:37;3.27;;;1.50;;
17586;SDS011;8912;52.336;17.172;2023-01-16T04:17:08;1.90;;;1.40;;
17586;SDS011;8912;52.336;17.172;2023-01-16T04:19:37;3.43;;;1.43;;
17586;SDS011;8912;52.336;17.172;2023-01-16T04:22:09;2.33;;;1.40;;
17586;SDS011;8912;52.336;17.172;2023-01-16T04:24:48;1.87;;;1.50;;
17586;SDS011;8912;52.336;17.172;2023-01-16T04:27:18;5.50;;;1.40;;
17586;SDS011;8912;52.336;17.172;2023-01-16T04:29:47;4.00;;;1.33;;
17586;SDS011;8912;52.336;17.172;2023-01-16T04:32:16;4.10;;;1.60;;
17586;SDS011;8912;52.336;17.172;2023-01-16T04:34:45;3.90;;;1.70;;
17586;SDS011;8912;52.336;17.172;2023-01-16T04:37:16;3.87;;;1.60;;
17586;SDS011;8912;52.336;17.172;2023-01-16T04:39:46;6.10;;;1.93;;
17586;SDS011;8912;52.336;17.172;2023-01-16T04:42:16;2.37;;;1.50;;
17586;SDS011;8912;52.336;17.172;2023-01-16T04:44:45;1.73;;;1.60;;
17586;SDS011;8912;52.336;17.172;2023-01-16T04:47:14;2.47;;;1.50;;
17586;SDS011;8912;52.336;17.172;2023-01-16T04:49:43;2.10;;;1.57;;
17586;SDS011;8912;52.336;17.172;2023-01-16T04:52:13;2.83;;;1.57;;
17586;SDS011;8912;52.336;17.172;2023-01-16T04:54:44;3.67;;;1.90;;
17586;SDS011;8912;52.336;17.172;2023-01-16T04:57:13;2.90;;;1.43;;
17586;SDS011;8912;52.336;17.172;2023-01-16T04:59:42;2.90;;;1.77;;
17586;SDS011;8912;52.336;17.172;2023-01-16T05:02:11;2.20;;;1.53;;
17586;SDS011;8912;52.336;17.172;2023-01-16T05:04:40;4.20;;;2.30;;
17586;SDS011;8912;52.336;17.172;2023-01-16T05:07:09;4.67;;;2.30;;
17586;SDS011;8912;52.336;17.172;2023-01-16T05:09:39;5.63;;;3.00;;
17586;SDS011;8912;52.336;17.172;2023-01-16T05:12:09;7.57;;;3.90;;
17586;SDS011;8912;52.336;17.172;2023-01-16T05:14:38;8.47;;;4.10;;
17586;SDS011;8912;52.336;17.172;2023-01-16T05:17:07;5.20;;;3.13;;
17586;SDS011;8912;52.336;17.172;2023-01-16T05:19:36;4.67;;;2.30;;
17586;SDS011;8912;52.336;17.172;2023-01-16T05:22:05;3.40;;;2.07;;
17586;SDS011;8912;52.336;17.172;2023-01-16T05:24:34;3.03;;;1.83;;
17586;SDS011;8912;52.336;17.172;2023-01-16T05:27:05;2.33;;;1.90;;
17586;SDS011;8912;52.336;17.172;2023-01-16T05:29:34;2.83;;;1.77;;
17586;SDS011;8912;52.336;17.172;2023-01-16T05:32:03;5.83;;;2.00;;
17586;SDS011;8912;52.336;17.172;2023-01-16T05:34:32;2.87;;;1.70;;
17586;SDS011;8912;52.336;17.172;2023-01-16T05:37:01;3.60;;;1.87;;
17586;SDS011;8912;52.336;17.172;2023-01-16T05:39:30;5.23;;;2.00;;
17586;SDS011;8912;52.336;17.172;2023-01-16T05:41:59;2.17;;;1.77;;
17586;SDS011;8912;52.336;17.172;2023-01-16T05:44:30;2.57;;;1.70;;
17586;SDS011;8912;52.336;17.172;2023-01-16T05:46:59;1.67;;;1.50;;
17586;SDS011;8912;52.336;17.172;2023-01-16T05:49:28;3.87;;;1.87;;
17586;SDS011;8912;52.336;17.172;2023-01-16T05:51:57;5.93;;;3.33;;
17586;SDS011;8912;52.336;17.172;2023-01-16T05:54:26;5.97;;;2.90;;
17586;SDS011;8912;52.336;17.172;2023-01-16T05:56:55;4.67;;;3.33;;
17586;SDS011;8912;52.336;17.172;2023-01-16T05:59:24;5.30;;;3.53;;
17586;SDS011;8912;52.336;17.172;2023-01-16T06:01:55;4.53;;;3.40;;
17586;SDS011;8912;52.336;17.172;2023-01-16T06:04:24;5.07;;;3.17;;
17586;SDS011;8912;52.336;17.172;2023-01-16T06:06:53;5.87;;;3.73;;
17586;SDS011;8912;52.336;17.172;2023-01-16T06:09:22;5.27;;;2.67;;
17586;SDS011;8912;52.336;17.172;2023-01-16T06:11:51;3.43;;;2.23;;
17586;SDS011;8912;52.336;17.172;2023-01-16T06:14:20;2.97;;;1.87;;
17586;SDS011;8912;52.336;17.172;2023-01-16T06:16:50;3.10;;;2.17;;
17586;SDS011;8912;52.336;17.172;2023-01-16T06:19:20;3.30;;;2.60;;
17586;SDS011;8912;52.336;17.172;2023-01-16T06:21:49;5.83;;;2.70;;
17586;SDS011;8912;52.336;17.172;2023-01-16T06:24:19;5.13;;;3.13;;
17586;SDS011;8912;52.336;17.172;2023-01-16T06:26:48;7.43;;;2.97;;
17586;SDS011;8912;52.336;17.172;2023-01-16T06:29:17;5.03;;;3.60;;
17586;SDS011;8912;52.336;17.172;2023-01-16T06:31:46;7.67;;;3.50;;
17586;SDS011;8912;52.336;17.172;2023-01-16T06:34:15;7.43;;;4.33;;
17586;SDS011;8912;52.336;17.172;2023-01-16T06:36:45;5.27;;;3.40;;
17586;SDS011;8912;52.336;17.172;2023-01-16T06:39:16;5.70;;;3.80;;
17586;SDS011;8912;52.336;17.172;2023-01-16T06:41:45;5.03;;;3.40;;
17586;SDS011;8912;52.336;17.172;2023-01-16T06:44:14;5.63;;;3.90;;
17586;SDS011;8912;52.336;17.172;2023-01-16T06:46:43;6.70;;;4.20;;
17586;SDS011;8912;52.336;17.172;2023-01-16T06:49:12;6.30;;;4.37;;
17586;SDS011;8912;52.336;17.172;2023-01-16T06:51:41;8.07;;;5.07;;
17586;SDS011;8912;52.336;17.172;2023-01-16T06:54:12;9.23;;;6.00;;
17586;SDS011;8912;52.336;17.172;2023-01-16T06:56:41;11.37;;;6.47;;
17586;SDS011;8912;52.336;17.172;2023-01-16T06:59:10;10.27;;;7.33;;
17586;SDS011;8912;52.336;17.172;2023-01-16T07:01:39;12.30;;;7.97;;
17586;SDS011;8912;52.336;17.172;2023-01-16T07:04:08;12.63;;;8.30;;
17586;SDS011;8912;52.336;17.172;2023-01-16T07:06:37;12.83;;;8.10;;
17586;SDS011;8912;52.336;17.172;2023-01-16T07:09:06;14.63;;;7.90;;
17586;SDS011;8912;52.336;17.172;2023-01-16T07:11:37;15.93;;;9.50;;
17586;SDS011;8912;52.336;17.172;2023-01-16T07:14:06;11.83;;;8.67;;
17586;SDS011;8912;52.336;17.172;2023-01-16T07:16:53;11.07;;;7.53;;
17586;SDS011;8912;52.336;17.172;2023-01-16T07:19:42;12.07;;;8.03;;
17586;SDS011;8912;52.336;17.172;2023-01-16T07:22:28;13.00;;;8.30;;
17586;SDS011;8912;52.336;17.172;2023-01-16T07:25:06;11.33;;;7.80;;
17586;SDS011;8912;52.336;17.172;2023-01-16T07:27:40;8.67;;;6.13;;
17586;SDS011;8912;52.336;17.172;2023-01-16T07:30:10;10.37;;;6.40;;
17586;SDS011;8912;52.336;17.172;2023-01-16T07:32:40;7.47;;;5.47;;
17586;SDS011;8912;52.336;17.172;2023-01-16T07:35:09;9.97;;;5.87;;
17586;SDS011;8912;52.336;17.172;2023-01-16T07:37:38;9.87;;;6.40;;
17586;SDS011;8912;52.336;17.172;2023-01-16T07:40:09;10.67;;;5.97;;
17586;SDS011;8912;52.336;17.172;2023-01-16T07:42:41;11.80;;;6.63;;
17586;SDS011;8912;52.336;17.172;2023-01-16T07:45:10;11.93;;;7.33;;
17586;SDS011;8912;52.336;17.172;2023-01-16T07:47:39;11.43;;;7.00;;
17586;SDS011;8912;52.336;17.172;2023-01-16T07:50:08;9.20;;;6.33;;
17586;SDS011;8912;52.336;17.172;2023-01-16T07:52:38;9.00;;;5.73;;
17586;SDS011;8912;52.336;17.172;2023-01-16T07:55:07;12.80;;;7.17;;
17586;SDS011;8912;52.336;17.172;2023-01-16T07:57:37;16.13;;;8.13;;
17586;SDS011;8912;52.336;17.172;2023-01-16T08:00:09;14.23;;;8.73;;
17586;SDS011;8912;52.336;17.172;2023-01-16T08:02:39;22.57;;;13.13;;
17586;SDS011;8912;52.336;17.172;2023-01-16T08:05:09;14.53;;;9.90;;
17586;SDS011;8912;52.336;17.172;2023-01-16T08:07:38;20.53;;;12.77;;
17586;SDS011;8912;52.336;17.172;2023-01-16T08:10:08;14.03;;;7.50;;
17586;SDS011;8912;52.336;17.172;2023-01-16T08:12:38;9.60;;;5.60;;
17586;SDS011;8912;52.336;17.172;2023-01-16T08:15:09;7.70;;;5.07;;
17586;SDS011;8912;52.336;17.172;2023-01-16T08:17:38;6.70;;;5.13;;
17586;SDS011;8912;52.336;17.172;2023-01-16T08:20:08;15.97;;;6.07;;
17586;SDS011;8912;52.336;17.172;2023-01-16T08:22:41;9.10;;;6.40;;
17586;SDS011;8912;52.336;17.172;2023-01-16T08:25:12;9.07;;;5.23;;
17586;SDS011;8912;52.336;17.172;2023-01-16T08:27:42;8.53;;;4.83;;
17586;SDS011;8912;52.336;17.172;2023-01-16T08:30:14;8.53;;;5.23;;
17586;SDS011;8912;52.336;17.172;2023-01-16T08:32:45;6.97;;;4.93;;
17586;SDS011;8912;52.336;17.172;2023-01-16T08:35:15;5.83;;;3.87;;
17586;SDS011;8912;52.336;17.172;2023-01-16T08:37:49;5.37;;;3.60;;
17586;SDS011;8912;52.336;17.172;2023-01-16T08:40:19;7.00;;;4.83;;
17586;SDS011;8912;52.336;17.172;2023-01-16T08:42:49;5.87;;;4.20;;
17586;SDS011;8912;52.336;17.172;2023-01-16T08:45:37;8.40;;;4.47;;
17586;SDS011;8912;52.336;17.172;2023-01-16T08:48:24;10.07;;;4.20;;
17586;SDS011;8912;52.336;17.172;2023-01-16T08:51:13;7.73;;;5.33;;
17586;SDS011;8912;52.336;17.172;2023-01-16T08:53:50;8.97;;;5.40;;
17586;SDS011;8912;52.336;17.172;2023-01-16T08:56:20;6.80;;;5.40;;
17586;SDS011;8912;52.336;17.172;2023-01-16T08:58:50;10.60;;;5.50;;
17586;SDS011;8912;52.336;17.172;2023-01-16T09:01:20;8.17;;;5.03;;
17586;SDS011;8912;52.336;17.172;2023-01-16T09:03:51;6.20;;;4.40;;
17586;SDS011;8912;52.336;17.172;2023-01-16T09:06:20;6.00;;;4.23;;
17586;SDS011;8912;52.336;17.172;2023-01-16T09:08:49;5.67;;;4.40;;
17586;SDS011;8912;52.336;17.172;2023-01-16T09:11:18;7.97;;;4.63;;
17586;SDS011;8912;52.336;17.172;2023-01-16T09:14:05;5.80;;;4.10;;
17586;SDS011;8912;52.336;17.172;2023-01-16T09:16:52;7.33;;;4.10;;
17586;SDS011;8912;52.336;17.172;2023-01-16T09:19:21;7.97;;;4.53;;
17586;SDS011;8912;52.336;17.172;2023-01-16T09:21:50;7.10;;;4.23;;
17586;SDS011;8912;52.336;17.172;2023-01-16T09:24:20;5.73;;;3.90;;
17586;SDS011;8912;52.336;17.172;2023-01-16T09:26:49;9.63;;;4.10;;
17586;SDS011;8912;52.336;17.172;2023-01-16T09:29:17;6.43;;;4.73;;
17586;SDS011;8912;52.336;17.172;2023-01-16T09:31:46;6.80;;;4.10;;
17586;SDS011;8912;52.336;17.172;2023-01-16T09:34:17;7.70;;;4.50;;
17586;SDS011;8912;52.336;17.172;2023-01-16T09:36:46;10.13;;;4.20;;
17586;SDS011;8912;52.336;17.172;2023-01-16T09:39:16;7.77;;;4.40;;
17586;SDS011;8912;52.336;17.172;2023-01-16T09:41:49;4.70;;;3.57;;
17586;SDS011;8912;52.336;17.172;2023-01-16T09:44:45;5.53;;;3.70;;
17586;SDS011;8912;52.336;17.172;2023-01-16T09:47:17;6.03;;;4.40;;
17586;SDS011;8912;52.336;17.172;2023-01-16T09:49:51;9.47;;;4.00;;
17586;SDS011;8912;52.336;17.172;2023-01-16T09:52:24;5.37;;;3.20;;
17586;SDS011;8912;52.336;17.172;2023-01-16T09:55:32;5.40;;;3.57;;
17586;SDS011;8912;52.336;17.172;2023-01-16T09:58:23;4.17;;;3.07;;
17586;SDS011;8912;52.336;17.172;2023-01-16T10:01:05;4.37;;;3.07;;
17586;SDS011;8912;52.336;17.172;2023-01-16T10:03:36;6.73;;;3.20;;
17586;SDS011;8912;52.336;17.172;2023-01-16T10:06:15;4.60;;;2.90;;
17586;SDS011;8912;52.336;17.172;2023-01-16T10:08:52;4.87;;;2.70;;
17586;SDS011;8912;52.336;17.172;2023-01-16T10:11:37;5.50;;;2.70;;
17586;SDS011;8912;52.336;17.172;2023-01-16T10:14:23;7.00;;;2.90;;
17586;SDS011;8912;52.336;17.172;2023-01-16T10:17:05;3.70;;;2.57;;
17586;SDS011;8912;52.336;17.172;2023-01-16T10:19:57;3.70;;;2.73;;
17586;SDS011;8912;52.336;17.172;2023-01-16T10:22:59;5.47;;;2.43;;
17586;SDS011;8912;52.336;17.172;2023-01-16T10:25:38;3.77;;;2.20;;
17586;SDS011;8912;52.336;17.172;2023-01-16T10:28:17;2.87;;;1.93;;
17586;SDS011;8912;52.336;17.172;2023-01-16T10:30:58;4.27;;;2.30;;
17586;SDS011;8912;52.336;17.172;2023-01-16T10:33:35;5.50;;;2.47;;
17586;SDS011;8912;52.336;17.172;2023-01-16T10:36:19;4.37;;;2.70;;
17586;SDS011;8912;52.336;17.172;2023-01-16T10:38:53;5.50;;;3.50;;
17586;SDS011;8912;52.336;17.172;2023-01-16T10:41:25;3.37;;;2.57;;
17586;SDS011;8912;52.336;17.172;2023-01-16T10:44:23;8.23;;;2.63;;
17586;SDS011;8912;52.336;17.172;2023-01-16T10:47:17;5.90;;;2.73;;
17586;SDS011;8912;52.336;17.172;2023-01-16T10:50:07;4.20;;;2.50;;
17586;SDS011;8912;52.336;17.172;2023-01-16T10:52:37;5.57;;;3.10;;
17586;SDS011;8912;52.336;17.172;2023-01-16T10:55:09;3.83;;;2.67;;
17586;SDS011;8912;52.336;17.172;2023-01-16T10:57:41;4.87;;;2.87;;
17586;SDS011;8912;52.336;17.172;2023-01-16T11:00:15;4.97;;;3.00;;
17586;SDS011;8912;52.336;17.172;2023-01-16T11:02:47;5.87;;;3.50;;
17586;SDS011;8912;52.336;17.172;2023-01-16T11:05:23;5.10;;;3.00;;
17586;SDS011;8912;52.336;17.172;2023-01-16T11:07:56;5.60;;;3.30;;
17586;SDS011;8912;52.336;17.172;2023-01-16T11:10:35;5.00;;;3.20;;
17586;SDS011;8912;52.336;17.172;2023-01-16T11:13:10;5.97;;;4.10;;
17586;SDS011;8912;52.336;17.172;2023-01-16T11:15:59;8.83;;;3.63;;
17586;SDS011;8912;52.336;17.172;2023-01-16T11:18:48;5.07;;;2.93;;
17586;SDS011;8912;52.336;17.172;2023-01-16T11:21:23;4.00;;;3.03;;
17586;SDS011;8912;52.336;17.172;2023-01-16T11:23:59;7.23;;;2.77;;
17586;SDS011;8912;52.336;17.172;2023-01-16T11:26:33;5.30;;;2.70;;
17586;SDS011;8912;52.336;17.172;2023-01-16T11:29:02;5.33;;;3.30;;
17586;SDS011;8912;52.336;17.172;2023-01-16T11:31:31;4.63;;;3.00;;
17586;SDS011;8912;52.336;17.172;2023-01-16T11:34:01;4.50;;;3.10;;
17586;SDS011;8912;52.336;17.172;2023-01-16T11:36:38;5.47;;;2.70;;
17586;SDS011;8912;52.336;17.172;2023-01-16T11:39:09;5.00;;;3.03;;
17586;SDS011;8912;52.336;17.172;2023-01-16T11:41:50;5.20;;;3.00;;
17586;SDS011;8912;52.336;17.172;2023-01-16T11:44:21;11.07;;;4.93;;
17586;SDS011;8912;52.336;17.172;2023-01-16T11:47:09;7.47;;;3.50;;
17586;SDS011;8912;52.336;17.172;2023-01-16T11:49:42;8.53;;;4.37;;
17586;SDS011;8912;52.336;17.172;2023-01-16T11:52:14;4.70;;;2.73;;
17586;SDS011;8912;52.336;17.172;2023-01-16T11:54:54;6.00;;;2.97;;
17586;SDS011;8912;52.336;17.172;2023-01-16T11:57:37;4.30;;;2.87;;
17586;SDS011;8912;52.336;17.172;2023-01-16T12:00:17;7.87;;;3.53;;
17586;SDS011;8912;52.336;17.172;2023-01-16T12:03:03;6.80;;;3.60;;
17586;SDS011;8912;52.336;17.172;2023-01-16T12:06:09;6.57;;;3.37;;
17586;SDS011;8912;52.336;17.172;2023-01-16T12:08:53;8.63;;;4.07;;
17586;SDS011;8912;52.336;17.172;2023-01-16T12:11:42;6.37;;;4.07;;
17586;SDS011;8912;52.336;17.172;2023-01-16T12:14:26;5.27;;;3.20;;
17586;SDS011;8912;52.336;17.172;2023-01-16T12:17:03;4.30;;;2.73;;
17586;SDS011;8912;52.336;17.172;2023-01-16T12:19:57;9.80;;;5.10;;
17586;SDS011;8912;52.336;17.172;2023-01-16T12:22:37;3.43;;;2.70;;
17586;SDS011;8912;52.336;17.172;2023-01-16T12:25:24;6.33;;;3.13;;
17586;SDS011;8912;52.336;17.172;2023-01-16T12:28:02;7.13;;;3.83;;
17586;SDS011;8912;52.336;17.172;2023-01-16T12:30:45;6.07;;;3.30;;
17586;SDS011;8912;52.336;17.172;2023-01-16T12:33:36;8.03;;;3.10;;
17586;SDS011;8912;52.336;17.172;2023-01-16T12:36:15;6.43;;;3.37;;
17586;SDS011;8912;52.336;17.172;2023-01-16T12:38:54;4.60;;;3.30;;
17586;SDS011;8912;52.336;17.172;2023-01-16T12:41:30;5.33;;;2.70;;
17586;SDS011;8912;52.336;17.172;2023-01-16T12:44:41;4.27;;;2.93;;
17586;SDS011;8912;52.336;17.172;2023-01-16T12:47:25;6.00;;;3.40;;
17586;SDS011;8912;52.336;17.172;2023-01-16T12:50:11;6.93;;;3.37;;
17586;SDS011;8912;52.336;17.172;2023-01-16T12:53:10;6.57;;;4.37;;
17586;SDS011;8912;52.336;17.172;2023-01-16T12:55:51;7.47;;;4.27;;
17586;SDS011;8912;52.336;17.172;2023-01-16T12:58:34;8.50;;;4.87;;
17586;SDS011;8912;52.336;17.172;2023-01-16T13:01:09;8.90;;;5.00;;
17586;SDS011;8912;52.336;17.172;2023-01-16T13:03:43;17.73;;;11.20;;
17586;SDS011;8912;52.336;17.172;2023-01-16T13:06:20;14.07;;;7.47;;
17586;SDS011;8912;52.336;17.172;2023-01-16T13:08:53;12.17;;;6.20;;
17586;SDS011;8912;52.336;17.172;2023-01-16T13:11:29;12.60;;;6.03;;
17586;SDS011;8912;52.336;17.172;2023-01-16T13:14:31;8.47;;;4.80;;
17586;SDS011;8912;52.336;17.172;2023-01-16T13:17:03;9.70;;;5.80;;
17586;SDS011;8912;52.336;17.172;2023-01-16T13:19:36;10.07;;;5.07;;
17586;SDS011;8912;52.336;17.172;2023-01-16T13:22:11;8.17;;;4.33;;
17586;SDS011;8912;52.336;17.172;2023-01-16T13:24:50;5.77;;;3.70;;
17586;SDS011;8912;52.336;17.172;2023-01-16T13:27:24;7.03;;;3.90;;
17586;SDS011;8912;52.336;17.172;2023-01-16T13:30:08;8.47;;;4.90;;
17586;SDS011;8912;52.336;17.172;2023-01-16T13:32:41;8.00;;;4.80;;
17586;SDS011;8912;52.336;17.172;2023-01-16T13:35:17;21.83;;;10.70;;
17586;SDS011;8912;52.336;17.172;2023-01-16T13:37:56;12.30;;;6.80;;
17586;SDS011;8912;52.336;17.172;2023-01-16T13:40:55;10.93;;;5.90;;
17586;SDS011;8912;52.336;17.172;2023-01-16T13:43:43;14.80;;;7.23;;
17586;SDS011;8912;52.336;17.172;2023-01-16T13:46:33;10.77;;;6.23;;
17586;SDS011;8912;52.336;17.172;2023-01-16T13:49:03;8.23;;;4.97;;
17586;SDS011;8912;52.336;17.172;2023-01-16T13:51:43;5.73;;;3.60;;
17586;SDS011;8912;52.336;17.172;2023-01-16T13:54:13;7.37;;;4.10;;
17586;SDS011;8912;52.336;17.172;2023-01-16T13:56:54;7.47;;;4.77;;
17586;SDS011;8912;52.336;17.172;2023-01-16T13:59:28;6.10;;;3.67;;
17586;SDS011;8912;52.336;17.172;2023-01-16T14:02:17;7.63;;;3.63;;
17586;SDS011;8912;52.336;17.172;2023-01-16T14:07:48;11.97;;;4.40;;
17586;SDS011;8912;52.336;17.172;2023-01-16T14:10:39;9.03;;;4.17;;
17586;SDS011;8912;52.336;17.172;2023-01-16T14:13:13;7.73;;;5.03;;
17586;SDS011;8912;52.336;17.172;2023-01-16T14:15:51;10.67;;;5.90;;
17586;SDS011;8912;52.336;17.172;2023-01-16T14:18:39;8.63;;;4.77;;
17586;SDS011;8912;52.336;17.172;2023-01-16T14:21:12;11.80;;;5.97;;
17586;SDS011;8912;52.336;17.172;2023-01-16T14:23:49;12.80;;;6.07;;
17586;SDS011;8912;52.336;17.172;2023-01-16T14:26:37;8.40;;;5.10;;
17586;SDS011;8912;52.336;17.172;2023-01-16T14:29:14;10.77;;;5.60;;
17586;SDS011;8912;52.336;17.172;2023-01-16T14:31:51;16.70;;;7.57;;
17586;SDS011;8912;52.336;17.172;2023-01-16T14:34:32;10.87;;;5.93;;
17586;SDS011;8912;52.336;17.172;2023-01-16T14:37:04;9.13;;;4.67;;
17586;SDS011;8912;52.336;17.172;2023-01-16T14:39:47;6.27;;;3.67;;
17586;SDS011;8912;52.336;17.172;2023-01-16T14:42:18;5.93;;;4.00;;
17586;SDS011;8912;52.336;17.172;2023-01-16T14:48:29;10.70;;;4.80;;
17586;SDS011;8912;52.336;17.172;2023-01-16T14:51:27;14.53;;;8.00;;
17586;SDS011;8912;52.336;17.172;2023-01-16T14:54:18;15.33;;;7.23;;
17586;SDS011;8912;52.336;17.172;2023-01-16T14:57:09;11.70;;;5.83;;
17586;SDS011;8912;52.336;17.172;2023-01-16T14:59:43;12.40;;;5.00;;
17586;SDS011;8912;52.336;17.172;2023-01-16T15:02:19;13.90;;;6.50;;
17586;SDS011;8912;52.336;17.172;2023-01-16T15:04:59;12.87;;;7.13;;
17586;SDS011;8912;52.336;17.172;2023-01-16T15:07:37;12.03;;;7.23;;
17586;SDS011;8912;52.336;17.172;2023-01-16T15:10:12;9.83;;;5.07;;
17586;SDS011;8912;52.336;17.172;2023-01-16T15:12:46;25.07;;;10.93;;
17586;SDS011;8912;52.336;17.172;2023-01-16T15:15:19;22.23;;;10.23;;
17586;SDS011;8912;52.336;17.172;2023-01-16T15:17:51;21.83;;;10.43;;
17586;SDS011;8912;52.336;17.172;2023-01-16T15:20:39;12.50;;;5.63;;
17586;SDS011;8912;52.336;17.172;2023-01-16T15:23:28;15.50;;;5.97;;
17586;SDS011;8912;52.336;17.172;2023-01-16T15:28:52;13.50;;;6.53;;
17586;SDS011;8912;52.336;17.172;2023-01-16T15:31:30;13.37;;;6.13;;
17586;SDS011;8912;52.336;17.172;2023-01-16T15:34:03;11.30;;;6.43;;
17586;SDS011;8912;52.336;17.172;2023-01-16T15:36:35;13.17;;;7.67;;
17586;SDS011;8912;52.336;17.172;2023-01-16T15:39:12;12.33;;;7.73;;
17586;SDS011;8912;52.336;17.172;2023-01-16T15:41:49;16.33;;;10.27;;
17586;SDS011;8912;52.336;17.172;2023-01-16T15:44:41;15.37;;;9.80;;